createdAt,value
2018-07-09T00:01:54.980Z,73.00
2018-07-09T00:07:01.653Z,73.10
2018-07-09T00:09:33.012Z,73.60
2018-07-09T00:12:15.234Z,74.00
2018-07-09T00:17:42.547Z,74.10
2018-07-09T00:20:13.573Z,74.60
2018-07-09T00:22:44.976Z,74.80
2018-07-09T00:25:27.056Z,75.40
2018-07-09T00:28:05.525Z,75.90
2018-07-09T00:30:36.788Z,76.80
2018-07-09T00:33:08.730Z,76.70
2018-07-09T00:35:54.434Z,77.10
2018-07-09T00:38:32.494Z,76.90
2018-07-09T00:43:32.558Z,76.70
2018-07-09T00:46:10.269Z,77.00
2018-07-09T00:48:52.300Z,77.30
2018-07-09T00:51:22.608Z,76.90
2018-07-09T00:54:20.751Z,76.80
2018-07-09T00:57:02.655Z,76.80
2018-07-09T00:59:45.469Z,77.70
2018-07-09T01:02:24.700Z,78.00
2018-07-09T01:05:11.000Z,78.00
2018-07-09T01:07:47.324Z,77.90
2018-07-09T01:10:19.875Z,78.00
2018-07-09T01:12:51.777Z,77.80
2018-07-09T01:15:22.279Z,77.70
2018-07-09T01:17:53.946Z,77.90
2018-07-09T01:20:25.307Z,77.90
2018-07-09T01:22:55.528Z,78.30
2018-07-09T01:25:25.740Z,78.50
2018-07-09T01:27:58.207Z,78.20
2018-07-09T01:30:37.294Z,78.60
2018-07-09T01:33:17.667Z,78.70
2018-07-09T01:35:56.056Z,79.00
2018-07-09T01:38:31.940Z,79.40
2018-07-09T01:41:02.078Z,79.80
2018-07-09T01:43:33.818Z,80.40
2018-07-09T01:46:04.356Z,80.40
2018-07-09T01:48:36.002Z,80.60
2018-07-09T01:51:06.146Z,80.40
2018-07-09T01:53:36.482Z,80.20
2018-07-09T01:56:11.707Z,80.00
2018-07-09T01:58:41.786Z,79.90
2018-07-09T02:01:11.961Z,79.80
2018-07-09T02:03:43.712Z,79.60
2018-07-09T02:06:14.441Z,79.40
2018-07-09T02:08:44.687Z,79.50
2018-07-09T02:11:15.301Z,79.90
2018-07-09T02:13:46.734Z,79.60
2018-07-09T02:16:23.291Z,79.70
2018-07-09T02:18:53.803Z,79.50
2018-07-09T02:21:23.802Z,79.70
2018-07-09T02:26:26.266Z,80.40
2018-07-09T02:28:57.492Z,80.00
2018-07-09T02:31:34.299Z,80.50
2018-07-09T02:34:08.925Z,80.40
2018-07-09T02:36:42.858Z,80.40
2018-07-09T02:39:13.218Z,80.20
2018-07-09T02:41:44.553Z,80.40
2018-07-09T02:44:16.665Z,80.50
2018-07-09T02:46:47.532Z,81.10
2018-07-09T02:49:20.130Z,81.10
2018-07-09T02:51:50.456Z,81.00
2018-07-09T02:54:20.217Z,80.70
2018-07-09T02:56:50.580Z,80.90
2018-07-09T02:59:21.850Z,80.90
2018-07-09T03:01:51.617Z,81.50
2018-07-09T03:04:22.257Z,80.90
2018-07-09T03:06:52.912Z,80.70
2018-07-09T03:09:24.072Z,80.70
2018-07-09T03:11:56.567Z,80.60
2018-07-09T03:14:29.655Z,80.80
2018-07-09T03:17:08.123Z,80.70
2018-07-09T03:19:39.139Z,80.70
2018-07-09T03:22:10.292Z,80.90
2018-07-09T03:24:40.442Z,80.50
2018-07-09T03:27:10.418Z,81.00
2018-07-09T03:29:41.247Z,81.00
2018-07-09T03:34:41.189Z,80.40
2018-07-09T03:37:11.719Z,80.20
2018-07-09T03:39:42.446Z,80.50
2018-07-09T03:42:12.927Z,80.30
2018-07-09T03:44:44.226Z,80.20
2018-07-09T03:47:14.252Z,80.30
2018-07-09T03:49:44.398Z,80.40
2018-07-09T03:52:14.205Z,80.50
2018-07-09T03:54:44.854Z,80.00
2018-07-09T03:57:16.129Z,80.10
2018-07-09T03:59:46.280Z,80.90
2018-07-09T04:02:19.494Z,80.60
2018-07-09T04:04:50.256Z,80.80
2018-07-09T04:07:20.590Z,81.40
2018-07-09T04:09:51.398Z,81.80
2018-07-09T04:12:21.229Z,82.00
2018-07-09T04:14:51.978Z,82.10
2018-07-09T04:17:29.658Z,82.20
2018-07-09T04:20:11.328Z,82.00
2018-07-09T04:22:41.261Z,81.70
2018-07-09T04:25:10.987Z,81.50
2018-07-09T04:27:40.828Z,81.50
2018-07-09T04:30:10.954Z,81.30
2018-07-09T04:32:41.197Z,81.20
2018-07-09T04:35:12.874Z,81.20
2018-07-09T04:37:43.227Z,81.30
2018-07-09T04:40:13.828Z,81.20
2018-07-09T04:42:50.822Z,81.20
2018-07-09T04:45:29.949Z,81.00
2018-07-09T04:48:00.249Z,80.90
2018-07-09T04:50:31.106Z,80.40
2018-07-09T04:53:06.250Z,80.00
2018-07-09T04:55:36.614Z,79.90
2018-07-09T04:58:06.960Z,79.70
2018-07-09T05:00:37.309Z,79.70
2018-07-09T05:03:20.986Z,79.70
2018-07-09T05:05:51.574Z,79.70
2018-07-09T05:08:22.534Z,79.20
2018-07-09T05:10:53.673Z,78.90
2018-07-09T05:13:27.193Z,78.70
2018-07-09T05:15:57.372Z,78.50
2018-07-09T05:18:27.556Z,78.30
2018-07-09T05:20:57.552Z,78.00
2018-07-09T05:23:28.804Z,77.90
2018-07-09T05:25:58.825Z,77.70
2018-07-09T05:28:29.192Z,77.70
2018-07-09T05:30:58.917Z,77.20
2018-07-09T05:33:31.034Z,77.00
2018-07-09T05:36:15.256Z,77.20
2018-07-09T05:38:52.818Z,76.70
2018-07-09T05:41:28.984Z,76.30
2018-07-09T05:43:59.793Z,76.30
2018-07-09T05:46:33.265Z,75.40
2018-07-09T05:49:05.780Z,74.80
2018-07-09T05:51:39.483Z,73.60
2018-07-09T05:56:56.141Z,72.30
2018-07-09T05:59:28.651Z,69.70
2018-07-09T06:01:59.059Z,70.30
2018-07-09T06:04:30.149Z,69.90
2018-07-09T06:07:00.619Z,69.40
2018-07-09T06:09:35.086Z,68.40
2018-07-09T06:12:07.544Z,68.10
2018-07-09T06:14:39.044Z,66.40
2018-07-09T06:17:09.378Z,66.40
2018-07-09T06:19:39.538Z,66.00
2018-07-09T06:22:16.663Z,65.20
2018-07-09T06:24:47.881Z,64.70
2018-07-09T06:27:19.371Z,65.00
2018-07-09T06:29:49.792Z,64.00
2018-07-09T06:32:19.879Z,64.30
2018-07-09T06:34:54.227Z,63.60
2018-07-09T06:37:26.564Z,63.20
2018-07-09T06:39:58.220Z,62.50
2018-07-09T06:42:28.775Z,62.50
2018-07-09T06:45:00.996Z,62.30
2018-07-09T06:47:31.292Z,63.00
2018-07-09T06:50:08.865Z,61.60
2018-07-09T06:52:52.624Z,61.30
2018-07-09T06:55:29.038Z,61.30
2018-07-09T06:58:02.245Z,61.60
2018-07-09T07:00:36.671Z,61.40
2018-07-09T07:03:38.680Z,60.50
2018-07-09T07:06:09.295Z,60.10
2018-07-09T07:08:44.029Z,60.60
2018-07-09T07:11:19.065Z,60.90
2018-07-09T07:13:51.930Z,60.00
2018-07-09T07:19:23.326Z,59.80
2018-07-09T07:22:07.642Z,59.10
2018-07-09T07:28:05.305Z,58.80
2018-07-09T07:30:35.686Z,59.10
2018-07-09T07:33:06.740Z,58.40
2018-07-09T07:35:41.511Z,58.70
2018-07-09T07:38:27.782Z,59.20
2018-07-09T07:40:59.458Z,58.70
2018-07-09T07:43:34.766Z,58.60
2018-07-09T07:46:05.104Z,58.20
2018-07-09T07:48:43.842Z,58.70
2018-07-09T07:51:16.385Z,57.90
2018-07-09T07:53:47.733Z,56.90
2018-07-09T07:56:23.243Z,57.00
2018-07-09T07:59:17.248Z,55.90
2018-07-09T08:04:58.180Z,56.10
2018-07-09T08:07:30.714Z,55.70
2018-07-09T08:10:03.838Z,55.30
2018-07-09T08:13:27.166Z,54.80
2018-07-09T08:15:16.942Z,54.80
2018-07-09T08:17:50.515Z,54.70
2018-07-09T08:20:20.431Z,55.20
2018-07-09T08:22:51.307Z,54.20
2018-07-09T08:25:21.588Z,53.90
2018-07-09T08:27:51.595Z,53.30
2018-07-09T08:30:22.474Z,52.50
2018-07-09T08:32:52.642Z,52.40
2018-07-09T08:35:22.466Z,51.60
2018-07-09T08:37:53.639Z,51.40
2018-07-09T08:40:25.475Z,51.10
2018-07-09T08:42:57.430Z,50.20
2018-07-09T08:45:28.061Z,50.40
2018-07-09T08:51:21.048Z,49.80
2018-07-09T08:53:51.493Z,50.30
2018-07-09T08:56:26.940Z,48.70
2018-07-09T08:59:04.180Z,48.10
2018-07-09T09:01:34.629Z,47.50
2018-07-09T09:04:10.766Z,47.30
2018-07-09T09:06:40.658Z,48.50
2018-07-09T09:09:10.580Z,48.60
2018-07-09T09:11:40.973Z,49.00
2018-07-09T09:14:11.787Z,48.90
2018-07-09T09:16:42.605Z,49.00
2018-07-09T09:19:26.966Z,49.00
2018-07-09T09:21:58.939Z,48.70
2018-07-09T09:24:29.493Z,48.70
2018-07-09T09:27:00.024Z,48.80
2018-07-09T09:29:32.572Z,48.70
2018-07-09T09:32:04.978Z,49.00
2018-07-09T09:35:04.530Z,48.60
2018-07-09T09:37:35.957Z,48.40
2018-07-09T09:40:12.178Z,47.50
2018-07-09T09:42:44.665Z,48.00
2018-07-09T09:45:16.340Z,47.60
2018-07-09T09:47:46.691Z,47.30
2018-07-09T09:50:17.654Z,47.20
2018-07-09T09:52:54.993Z,47.00
2018-07-09T09:55:24.898Z,46.70
2018-07-09T09:57:56.321Z,46.20
2018-07-09T10:00:32.111Z,46.30
2018-07-09T10:03:16.457Z,46.50
2018-07-09T10:05:48.263Z,46.80
2018-07-09T10:08:19.224Z,46.50
2018-07-09T10:10:49.250Z,46.20
2018-07-09T10:13:20.427Z,46.00
2018-07-09T10:15:51.530Z,46.00
2018-07-09T10:18:25.585Z,45.50
2018-07-09T10:20:58.274Z,45.30
2018-07-09T10:23:29.235Z,45.70
2018-07-09T10:25:59.443Z,45.40
2018-07-09T10:28:30.415Z,45.30
2018-07-09T10:31:04.534Z,44.70
2018-07-09T10:33:36.579Z,43.90
2018-07-09T10:39:10.898Z,43.90
2018-07-09T10:41:44.884Z,43.40
2018-07-09T10:44:16.889Z,42.90
2018-07-09T10:46:52.159Z,42.90
2018-07-09T10:49:23.205Z,42.70
2018-07-09T10:51:54.491Z,43.30
2018-07-09T10:54:51.507Z,43.00
2018-07-09T10:57:26.437Z,42.00
2018-07-09T11:00:01.348Z,42.30
2018-07-09T11:02:31.433Z,42.20
2018-07-09T11:05:08.287Z,41.50
2018-07-09T11:07:47.722Z,41.30
2018-07-09T11:10:23.783Z,41.20
2018-07-09T11:12:57.946Z,41.30
2018-07-09T11:15:45.620Z,41.40
2018-07-09T11:18:32.304Z,40.10
2018-07-09T11:21:06.442Z,41.60
2018-07-09T11:24:01.085Z,41.50
2018-07-09T11:26:57.753Z,41.30
2018-07-09T11:29:30.484Z,41.90
2018-07-09T11:32:02.355Z,41.10
2018-07-09T11:34:36.461Z,41.00
2018-07-09T11:37:08.811Z,40.60
2018-07-09T11:40:19.728Z,39.10
2018-07-09T11:42:55.764Z,38.90
2018-07-09T11:45:25.655Z,38.70
2018-07-09T11:47:56.100Z,37.50
2018-07-09T11:50:26.211Z,38.10
2018-07-09T11:53:28.725Z,37.00
2018-07-09T11:56:04.024Z,37.00
2018-07-09T11:58:43.303Z,36.60
2018-07-09T12:01:13.512Z,35.80
2018-07-09T12:03:43.443Z,36.70
2018-07-09T12:06:15.163Z,36.00
2018-07-09T12:08:45.148Z,34.90
2018-07-09T12:11:15.575Z,35.60
2018-07-09T12:13:46.307Z,36.00
2018-07-09T12:16:20.253Z,36.00
2018-07-09T12:18:54.350Z,35.40
2018-07-09T12:21:54.626Z,35.00
2018-07-09T12:24:52.893Z,34.60
2018-07-09T12:27:23.915Z,34.00
2018-07-09T12:29:54.397Z,33.50
2018-07-09T12:32:25.469Z,33.60
2018-07-09T12:34:57.314Z,32.70
2018-07-09T12:37:30.410Z,32.60
2018-07-09T12:40:03.903Z,31.80
2018-07-09T12:42:37.498Z,31.90
2018-07-09T12:45:10.251Z,32.20
2018-07-09T12:47:40.976Z,32.00
2018-07-09T12:50:13.906Z,31.60
2018-07-09T12:52:44.485Z,31.80
2018-07-09T12:55:16.864Z,31.80
2018-07-09T12:57:50.059Z,31.80
2018-07-09T13:00:32.982Z,32.00
2018-07-09T13:03:08.670Z,32.20
2018-07-09T13:05:41.153Z,31.90
2018-07-09T13:08:16.115Z,31.30
2018-07-09T13:10:51.107Z,31.50
2018-07-09T13:13:24.401Z,31.50
2018-07-09T13:15:57.302Z,31.50
2018-07-09T13:18:35.091Z,31.50
2018-07-09T13:21:05.744Z,31.90
2018-07-09T13:23:36.767Z,31.40
2018-07-09T13:26:08.793Z,31.70
2018-07-09T13:28:39.748Z,31.60
2018-07-09T13:31:11.132Z,32.00
2018-07-09T13:33:41.167Z,32.70
2018-07-09T13:36:13.001Z,32.30
2018-07-09T13:38:43.837Z,32.20
2018-07-09T13:41:19.284Z,31.60
2018-07-09T13:43:50.265Z,31.80
2018-07-09T13:46:20.352Z,31.50
2018-07-09T13:48:50.270Z,31.70
2018-07-09T13:51:23.351Z,31.90
2018-07-09T13:53:54.704Z,31.30
2018-07-09T13:56:31.041Z,31.20
2018-07-09T13:59:02.113Z,30.60
2018-07-09T14:01:33.353Z,30.30
2018-07-09T14:04:10.042Z,30.70
2018-07-09T14:06:43.389Z,29.90
2018-07-09T14:14:15.446Z,29.50
2018-07-09T14:16:50.506Z,29.10
2018-07-09T14:20:49.887Z,28.50
2018-07-09T14:26:20.941Z,28.30
2018-07-09T14:28:51.572Z,27.70
2018-07-09T14:31:23.450Z,27.70
2018-07-09T14:33:55.905Z,27.50
2018-07-09T14:36:27.928Z,27.30
2018-07-09T14:39:04.614Z,27.20
2018-07-09T14:41:34.750Z,27.10
2018-07-09T14:44:08.870Z,28.10
2018-07-09T14:46:41.867Z,28.00
2018-07-09T14:49:12.614Z,27.70
2018-07-09T14:51:44.380Z,27.50
2018-07-09T14:54:33.457Z,27.50
2018-07-09T14:57:23.762Z,26.60
2018-07-09T14:59:56.630Z,26.60
2018-07-09T15:02:30.077Z,26.20
2018-07-09T15:05:02.826Z,26.30
2018-07-09T15:07:35.479Z,26.60
2018-07-09T15:10:06.584Z,26.40
2018-07-09T15:12:36.460Z,26.40
2018-07-09T15:15:17.716Z,26.10
2018-07-09T15:17:51.110Z,25.90
2018-07-09T15:20:25.540Z,25.70
2018-07-09T15:22:55.913Z,25.70
2018-07-09T15:28:20.846Z,26.10
2018-07-09T15:30:51.019Z,26.40
2018-07-09T15:33:24.555Z,26.40
2018-07-09T15:35:59.576Z,26.90
2018-07-09T15:38:32.240Z,26.70
2018-07-09T15:41:03.418Z,25.90
2018-07-09T15:44:05.695Z,26.40
2018-07-09T15:46:37.243Z,26.30
2018-07-09T15:49:07.233Z,26.20
2018-07-09T15:51:40.964Z,25.80
2018-07-09T15:54:14.234Z,25.70
2018-07-09T15:56:47.384Z,25.70
2018-07-09T15:59:19.403Z,25.50
2018-07-09T16:01:52.677Z,25.30
2018-07-09T16:04:47.621Z,25.00
2018-07-09T16:07:18.953Z,24.90
2018-07-09T16:09:59.734Z,24.60
2018-07-09T16:12:44.274Z,24.60
2018-07-09T16:15:14.806Z,24.70
2018-07-09T16:17:48.231Z,24.50
2018-07-09T16:20:21.279Z,23.90
2018-07-09T16:22:58.661Z,23.40
2018-07-09T16:25:33.636Z,23.70
2018-07-09T16:28:24.859Z,24.30
2018-07-09T16:36:38.698Z,23.80
2018-07-09T16:45:11.106Z,24.40
2018-07-09T16:47:42.583Z,24.20
2018-07-09T16:52:54.413Z,24.30
2018-07-09T16:55:25.534Z,24.00
2018-07-09T16:57:56.012Z,24.30
2018-07-09T17:00:27.984Z,24.30
2018-07-09T17:03:00.419Z,24.20
2018-07-09T17:05:34.712Z,24.30
2018-07-09T17:08:11.671Z,24.20
2018-07-09T17:14:02.631Z,24.70
2018-07-09T17:16:35.849Z,24.80
2018-07-09T17:19:06.172Z,25.10
2018-07-09T17:21:38.030Z,25.20
2018-07-09T17:29:21.153Z,25.00
2018-07-09T17:31:58.264Z,25.50
2018-07-09T17:34:29.214Z,26.00
2018-07-09T17:37:03.015Z,26.40
2018-07-09T17:39:41.617Z,26.70
2018-07-09T17:42:26.511Z,27.00
2018-07-09T17:44:57.788Z,27.40
2018-07-09T17:47:29.877Z,28.90
2018-07-09T17:50:16.250Z,35.30
2018-07-09T17:56:00.664Z,41.00
2018-07-09T17:58:33.499Z,42.60
2018-07-09T18:01:05.608Z,43.20
2018-07-09T18:03:37.037Z,44.10
2018-07-09T18:06:10.085Z,43.70
2018-07-09T18:08:43.373Z,44.50
2018-07-09T18:11:17.086Z,44.50
2018-07-09T18:13:50.171Z,45.00
2018-07-09T18:16:23.444Z,45.20
2018-07-09T18:18:58.621Z,45.70
2018-07-09T18:24:16.454Z,45.80
2018-07-09T18:27:01.165Z,45.60
2018-07-09T18:29:35.740Z,46.10
2018-07-09T18:32:16.464Z,46.00
2018-07-09T18:35:32.578Z,46.20
2018-07-09T18:38:31.127Z,46.50
2018-07-09T18:41:05.716Z,46.20
2018-07-09T18:43:40.317Z,46.80
2018-07-09T18:46:13.369Z,47.00
2018-07-09T18:48:45.326Z,47.20
2018-07-09T18:51:24.726Z,47.00
2018-07-09T18:54:10.670Z,47.60
2018-07-09T18:56:42.528Z,47.50
2018-07-09T18:59:14.881Z,47.40
2018-07-09T19:01:45.856Z,47.50
2018-07-09T19:04:25.186Z,47.30
2018-07-09T19:07:05.501Z,47.70
2018-07-09T19:09:40.423Z,47.80
2018-07-09T19:12:18.163Z,47.90
2018-07-09T19:14:50.409Z,47.70
2018-07-09T19:18:08.194Z,47.90
2018-07-09T19:21:33.421Z,47.90
2018-07-09T19:24:03.797Z,47.80
2018-07-09T19:29:08.522Z,47.80
2018-07-09T19:31:52.578Z,48.30
2018-07-09T19:34:22.666Z,48.40
2018-07-09T19:36:51.598Z,48.50
2018-07-09T19:39:19.608Z,48.70
2018-07-09T19:41:50.728Z,48.60
2018-07-09T19:44:19.665Z,49.00
2018-07-09T19:46:48.789Z,49.00
2018-07-09T19:51:51.498Z,49.10
2018-07-09T19:56:50.722Z,48.90
2018-07-09T19:59:20.645Z,49.50
2018-07-09T20:04:22.361Z,49.20
2018-07-09T20:06:54.556Z,49.30
2018-07-09T20:09:35.180Z,49.20
2018-07-09T20:12:17.513Z,49.30
2018-07-09T20:14:52.026Z,49.60
2018-07-09T20:17:36.610Z,49.50
2018-07-09T20:20:11.307Z,50.30
2018-07-09T20:22:40.569Z,51.20
2018-07-09T20:25:13.227Z,51.40
2018-07-09T20:27:45.998Z,50.90
2018-07-09T20:30:15.342Z,51.70
2018-07-09T20:32:46.652Z,51.80
2018-07-09T20:35:17.683Z,52.40
2018-07-09T20:40:16.613Z,52.90
2018-07-09T20:42:45.519Z,52.70
2018-07-09T20:45:16.318Z,53.50
2018-07-09T20:47:46.241Z,54.00
2018-07-09T20:50:18.844Z,54.40
2018-07-09T20:52:47.702Z,54.60
2018-07-09T20:55:16.182Z,54.50
2018-07-09T20:57:44.660Z,55.50
2018-07-09T21:00:13.868Z,56.30
2018-07-09T21:02:45.459Z,56.60
2018-07-09T21:07:49.326Z,56.90
2018-07-09T21:10:17.355Z,57.10
2018-07-09T21:12:54.022Z,57.00
2018-07-09T21:17:55.787Z,57.50
2018-07-09T21:20:24.712Z,57.60
2018-07-09T21:22:56.547Z,57.70
2018-07-09T21:25:26.024Z,58.10
2018-07-09T21:27:56.714Z,58.10
2018-07-09T21:30:29.243Z,57.40
2018-07-09T21:33:00.369Z,57.60
2018-07-09T21:35:33.502Z,57.40
2018-07-09T21:38:06.053Z,57.70
2018-07-09T21:43:04.349Z,58.50
2018-07-09T21:45:33.661Z,58.60
2018-07-09T21:48:10.562Z,58.90
2018-07-09T21:50:30.846Z,58.90
2018-07-09T21:52:59.915Z,59.20
2018-07-09T21:55:28.191Z,59.00
2018-07-09T21:58:00.667Z,58.90
2018-07-09T22:00:29.432Z,58.80
2018-07-09T22:02:57.534Z,59.00
2018-07-09T22:05:26.525Z,59.40
2018-07-09T22:07:55.425Z,59.90
2018-07-09T22:10:25.354Z,60.00
2018-07-09T22:12:56.724Z,60.20
2018-07-09T22:15:25.463Z,60.20
2018-07-09T22:17:53.454Z,59.90
2018-07-09T22:20:22.594Z,60.30
2018-07-09T22:22:51.163Z,60.40
2018-07-09T22:25:19.252Z,60.30
2018-07-09T22:27:47.574Z,60.40
2018-07-09T22:30:22.710Z,61.00
2018-07-09T22:32:59.453Z,61.30
2018-07-09T22:35:31.019Z,61.10
2018-07-09T22:38:06.305Z,61.10
2018-07-09T22:40:36.226Z,61.00
2018-07-09T22:43:24.010Z,61.10
2018-07-09T22:45:58.542Z,61.30
2018-07-09T22:48:29.321Z,61.70
2018-07-09T22:51:00.354Z,62.40
2018-07-09T22:53:31.344Z,62.80
2018-07-09T22:56:10.229Z,63.10
2018-07-09T22:58:42.126Z,63.10
2018-07-09T23:01:12.791Z,63.80
2018-07-09T23:03:43.502Z,62.70
2018-07-09T23:06:14.401Z,62.90
2018-07-09T23:11:36.406Z,63.60
2018-07-09T23:16:52.685Z,64.80
2018-07-09T23:19:40.188Z,65.40
2018-07-09T23:22:21.667Z,66.60
2018-07-09T23:24:49.920Z,67.00
2018-07-09T23:27:18.076Z,66.90
2018-07-09T23:29:49.373Z,66.80
2018-07-09T23:34:49.073Z,66.30
2018-07-09T23:37:19.342Z,65.80
2018-07-09T23:39:49.585Z,65.40
2018-07-09T23:44:47.985Z,64.90
2018-07-09T23:47:16.684Z,65.00
2018-07-09T23:49:45.194Z,65.20
2018-07-09T23:52:13.421Z,65.30
2018-07-09T23:54:41.491Z,65.20
2018-07-09T23:58:27.353Z,65.40
